Time;durP1;ratioP1;P1;durP2;ratioP2;P2;SDS_P1;SDS_P2;PMS_P1;PMS_P2;Temp;Humidity;BMP_temperature;BMP_pressure;BME280_temperature;BME280_humidity;BME280_pressure;Samples;Min_cycle;Max_cycle;Signal;HPM_P1;HPM_P2
2021/05/17 00:00:49;;;;;;;9.80;4.85;;;;;;;7.00;90.75;99482.97;5059903;28;20053;-84
2021/05/17 00:03:22;;;;;;;8.68;4.85;;;;;;;6.96;91.15;99482.75;5078605;28;20044;-83
2021/05/17 00:05:50;;;;;;;7.13;4.55;;;;;;;6.95;90.76;99480.34;5058354;28;20048;-84
2021/05/17 00:08:23;;;;;;;11.07;4.30;;;;;;;7.03;90.66;99482.41;5067613;28;20063;-83
2021/05/17 00:10:56;;;;;;;7.78;4.50;;;;;;;7.06;91.17;99489.97;5053190;28;20083;-83
2021/05/17 00:13:25;;;;;;;8.75;4.72;;;;;;;7.09;90.64;99480.47;5052396;28;20049;-84
2021/05/17 00:15:58;;;;;;;7.65;4.30;;;;;;;7.09;90.62;99483.97;5062022;28;20049;-84
2021/05/17 00:18:31;;;;;;;8.27;5.05;;;;;;;7.08;90.83;99489.66;5059752;28;20480;-84
2021/05/17 00:21:05;;;;;;;10.07;5.00;;;;;;;7.05;90.60;99482.13;5062637;28;20051;-83
2021/05/17 00:23:38;;;;;;;9.95;4.95;;;;;;;7.13;90.59;99487.72;5057453;28;20041;-83
2021/05/17 00:26:06;;;;;;;8.98;4.93;;;;;;;7.04;90.52;99484.00;5065118;28;20095;-84
2021/05/17 00:28:40;;;;;;;8.27;4.20;;;;;;;7.01;90.34;99478.38;5064162;28;20053;-83
2021/05/17 00:31:07;;;;;;;6.82;4.03;;;;;;;7.06;90.42;99486.47;5060358;28;20067;-83
2021/05/17 00:33:40;;;;;;;6.45;3.72;;;;;;;6.93;90.03;99466.28;5059109;28;20060;-83
2021/05/17 00:36:18;;;;;;;6.68;3.67;;;;;;;6.85;89.72;99466.91;5062147;28;20044;-83
2021/05/17 00:38:46;;;;;;;7.30;3.90;;;;;;;6.96;89.52;99479.22;5062857;28;20123;-83
2021/05/17 00:41:19;;;;;;;9.13;3.83;;;;;;;6.88;89.75;99474.47;5063624;28;20501;-84
2021/05/17 00:44:02;;;;;;;9.10;4.10;;;;;;;6.89;89.65;99478.75;5061971;28;20041;-83
2021/05/17 00:46:36;;;;;;;7.50;3.55;;;;;;;6.87;89.87;99464.72;5062318;28;20053;-83
2021/05/17 00:49:10;;;;;;;9.60;4.40;;;;;;;6.86;89.97;99469.31;5059866;28;20040;-82
2021/05/17 00:51:44;;;;;;;7.57;4.20;;;;;;;6.88;89.55;99467.16;5060034;28;20053;-83
2021/05/17 00:54:17;;;;;;;7.97;3.88;;;;;;;7.00;90.13;99466.75;5065219;28;20497;-84
2021/05/17 00:56:50;;;;;;;13.10;4.05;;;;;;;7.00;90.40;99472.16;5070241;28;20405;-84
2021/05/17 00:59:24;;;;;;;9.55;4.18;;;;;;;7.08;89.79;99466.13;5074065;28;20053;-83
2021/05/17 01:02:03;;;;;;;9.95;3.85;;;;;;;7.11;89.82;99467.44;5057306;28;20047;-83
2021/05/17 01:04:51;;;;;;;11.75;4.38;;;;;;;7.10;90.12;99455.84;5058459;28;20068;-83
2021/05/17 01:07:24;;;;;;;8.25;4.35;;;;;;;7.07;90.18;99461.81;5064041;28;20064;-82
2021/05/17 01:09:59;;;;;;;7.75;4.30;;;;;;;7.21;89.62;99453.84;5060480;28;20049;-83
2021/05/17 01:12:32;;;;;;;6.00;3.53;;;;;;;7.24;89.40;99452.44;5056686;28;20053;-83
2021/05/17 01:15:08;;;;;;;7.80;3.97;;;;;;;7.30;89.18;99457.50;5062507;28;20056;-83
2021/05/17 01:17:41;;;;;;;8.10;4.30;;;;;;;7.27;89.09;99447.25;5074972;28;20513;-83
2021/05/17 01:20:18;;;;;;;7.47;4.20;;;;;;;7.31;89.44;99451.00;5060938;28;20044;-84
2021/05/17 01:22:52;;;;;;;6.28;3.92;;;;;;;7.28;89.53;99448.88;5055396;28;20509;-83
2021/05/17 01:25:24;;;;;;;8.45;4.00;;;;;;;7.41;89.28;99450.06;5058292;28;20602;-84
2021/05/17 01:27:57;;;;;;;9.32;4.70;;;;;;;7.30;89.40;99445.88;5053312;28;20048;-82
2021/05/17 01:30:26;;;;;;;10.35;4.32;;;;;;;7.28;88.93;99451.56;5061133;28;20049;-83
2021/05/17 01:33:00;;;;;;;7.38;3.90;;;;;;;7.57;88.07;99441.78;5058623;28;20401;-83
2021/05/17 01:35:33;;;;;;;9.13;4.35;;;;;;;7.42;89.23;99461.72;5074059;28;20524;-82
2021/05/17 01:38:04;;;;;;;7.82;4.03;;;;;;;7.49;89.10;99457.56;5057837;28;20405;-81
2021/05/17 01:40:39;;;;;;;6.30;3.90;;;;;;;7.33;89.98;99442.59;5082813;28;20063;-82
2021/05/17 01:43:13;;;;;;;9.23;4.10;;;;;;;7.36;89.73;99449.31;5080006;28;20048;-83
2021/05/17 01:45:44;;;;;;;8.50;4.30;;;;;;;7.40;89.65;99458.47;5077039;28;20052;-83
2021/05/17 01:48:12;;;;;;;7.10;4.20;;;;;;;7.41;89.44;99457.41;5059087;28;20052;-83
2021/05/17 01:50:45;;;;;;;8.20;3.85;;;;;;;7.37;90.26;99454.44;5061865;28;20350;-83
2021/05/17 01:53:19;;;;;;;6.13;4.00;;;;;;;7.31;89.77;99450.19;5056521;28;20488;-84
2021/05/17 01:55:53;;;;;;;6.85;3.80;;;;;;;7.40;90.08;99453.06;5057023;28;20131;-83
2021/05/17 01:58:26;;;;;;;6.20;3.97;;;;;;;7.38;90.41;99458.78;5056204;28;20053;-84
2021/05/17 02:01:04;;;;;;;;;;;;;;;7.30;90.78;99451.28;5063876;28;20052;-83
2021/05/17 02:03:37;;;;;;;8.00;3.35;;;;;;;7.42;89.75;99454.41;5080188;28;19920;-83
2021/05/17 02:06:13;;;;;;;6.47;3.58;;;;;;;7.37;90.34;99453.66;5061353;28;20048;-82
2021/05/17 02:08:49;;;;;;;8.70;3.45;;;;;;;7.47;88.63;99435.41;5072776;28;20056;-83
2021/05/17 02:11:20;;;;;;;9.88;3.90;;;;;;;7.31;89.86;99442.88;5073373;28;20400;-83
2021/05/17 02:14:04;;;;;;;6.82;3.60;;;;;;;7.41;89.08;99451.97;5082686;28;20407;-83
2021/05/17 02:16:38;;;;;;;8.15;4.15;;;;;;;7.42;88.84;99459.00;5057604;28;20053;-83
2021/05/17 02:19:06;;;;;;;;;;;;;;;7.41;89.42;99460.09;5090362;28;20044;-83
2021/05/17 02:21:38;;;;;;;5.70;3.75;;;;;;;7.43;89.38;99458.72;5073801;28;19920;-83
2021/05/17 02:24:14;;;;;;;7.10;3.92;;;;;;;7.45;89.81;99467.34;5059063;28;20049;-84
2021/05/17 02:26:48;;;;;;;9.85;4.53;;;;;;;7.39;90.30;99467.69;5070371;28;20658;-84
2021/05/17 02:29:21;;;;;;;6.07;4.03;;;;;;;7.38;90.10;99469.59;5064567;28;20044;-84
2021/05/17 02:31:56;;;;;;;7.68;4.18;;;;;;;7.35;90.24;99461.25;5060963;28;20052;-83
2021/05/17 02:34:30;;;;;;;8.90;4.43;;;;;;;7.34;90.49;99470.47;5060232;28;20041;-84
2021/05/17 02:37:03;;;;;;;7.53;4.28;;;;;;;7.32;90.48;99468.84;5075438;28;20053;-84
2021/05/17 02:39:37;;;;;;;8.88;4.32;;;;;;;7.35;90.93;99472.06;5077367;28;20057;-83
2021/05/17 02:42:16;;;;;;;6.28;3.85;;;;;;;7.35;90.53;99478.31;5086099;28;20053;-83
2021/05/17 02:44:49;;;;;;;7.63;3.95;;;;;;;7.39;90.82;99475.81;5069273;28;20539;-84
2021/05/17 02:47:23;;;;;;;7.78;3.92;;;;;;;7.36;90.12;99473.69;5081049;28;20397;-84
2021/05/17 02:49:56;;;;;;;8.85;3.72;;;;;;;7.38;90.47;99480.44;5081373;27;20112;-84
2021/05/17 02:52:30;;;;;;;9.27;3.95;;;;;;;7.29;90.22;99463.19;5075357;28;20075;-83
2021/05/17 02:55:05;;;;;;;7.32;3.75;;;;;;;7.38;90.07;99474.22;5084494;28;20618;-84
2021/05/17 02:57:44;;;;;;;7.20;3.55;;;;;;;7.37;89.95;99480.72;5063770;28;20049;-84
2021/05/17 03:00:19;;;;;;;6.30;3.92;;;;;;;7.26;90.18;99478.09;5069131;28;20052;-83
2021/05/17 03:03:03;;;;;;;9.57;3.63;;;;;;;7.16;90.79;99467.41;5057594;28;20044;-82
2021/05/17 03:05:56;;;;;;;6.20;4.18;;;;;;;7.17;90.76;99477.13;5083242;28;20048;-83
2021/05/17 03:08:42;;;;;;;10.57;4.10;;;;;;;7.17;90.89;99484.44;5076991;28;20060;-83
2021/05/17 03:11:16;;;;;;;9.43;4.22;;;;;;;7.12;90.84;99488.81;5059832;28;20044;-83
2021/05/17 03:13:52;;;;;;;11.95;4.47;;;;;;;7.15;91.26;99484.72;5059448;28;20053;-84
2021/05/17 03:16:26;;;;;;;8.05;4.13;;;;;;;7.05;91.25;99490.25;5065468;28;20048;-83
2021/05/17 03:18:59;;;;;;;8.30;4.22;;;;;;;7.10;91.31;99491.00;5059970;28;20041;-83
2021/05/17 03:21:33;;;;;;;6.32;3.83;;;;;;;7.13;90.90;99495.03;5067552;28;20492;-83
2021/05/17 03:24:07;;;;;;;9.38;4.60;;;;;;;7.07;90.88;99490.75;5058878;28;20051;-83
2021/05/17 03:26:43;;;;;;;6.70;4.32;;;;;;;7.10;91.03;99499.13;5061770;28;20056;-83
2021/05/17 03:29:16;;;;;;;8.88;4.70;;;;;;;7.13;90.46;99495.84;5063050;28;20049;-83
2021/05/17 03:31:49;;;;;;;6.28;3.78;;;;;;;7.12;90.49;99498.84;5059978;28;20045;-84
2021/05/17 03:34:22;;;;;;;8.25;3.95;;;;;;;7.10;90.55;99501.81;5062244;28;20052;-83
2021/05/17 03:36:54;;;;;;;10.48;4.72;;;;;;;7.06;90.65;99505.41;5060361;28;20041;-84
2021/05/17 03:39:22;;;;;;;10.20;4.50;;;;;;;7.04;90.71;99502.16;5060119;28;20044;-84
2021/05/17 03:41:55;;;;;;;8.48;4.22;;;;;;;7.05;91.05;99506.47;5062841;28;20482;-84
2021/05/17 03:44:28;;;;;;;9.02;4.28;;;;;;;7.08;91.13;99505.91;5058500;28;20401;-82
2021/05/17 03:47:04;;;;;;;8.45;4.45;;;;;;;7.10;91.06;99504.53;5062288;28;20056;-83
2021/05/17 03:49:37;;;;;;;9.27;5.38;;;;;;;7.04;90.94;99499.44;5068058;28;20055;-82
2021/05/17 03:52:05;;;;;;;8.85;5.00;;;;;;;7.02;91.44;99499.75;5062933;28;20047;-83
2021/05/17 03:54:38;;;;;;;9.40;4.97;;;;;;;6.93;91.49;99504.97;5056029;28;20053;-82
2021/05/17 03:57:11;;;;;;;11.75;5.10;;;;;;;6.85;91.41;99497.47;5074061;28;20136;-84
2021/05/17 03:59:45;;;;;;;7.18;4.65;;;;;;;6.93;91.04;99518.50;5057964;28;20040;-83
2021/05/17 04:02:16;;;;;;;10.68;5.35;;;;;;;6.91;91.23;99525.28;5059866;28;20512;-83
2021/05/17 04:04:59;;;;;;;10.00;4.80;;;;;;;6.80;91.52;99511.03;5060087;28;20053;-84
2021/05/17 04:07:51;;;;;;;9.35;5.20;;;;;;;6.81;91.63;99518.06;5067825;28;20055;-85
2021/05/17 04:13:24;;;;;;;8.93;5.03;;;;;;;7.01;91.09;99529.78;5070698;28;20284;-84
2021/05/17 04:15:58;;;;;;;11.18;4.95;;;;;;;7.03;91.17;99516.75;5056838;28;20056;-83
2021/05/17 04:18:26;;;;;;;8.27;5.18;;;;;;;7.13;91.19;99527.50;5061954;28;20045;-83
2021/05/17 04:20:54;;;;;;;9.88;5.03;;;;;;;7.17;91.03;99522.31;5074616;28;20040;-84
2021/05/17 04:23:28;;;;;;;13.02;5.38;;;;;;;7.16;90.49;99510.69;5055118;28;20493;-84
2021/05/17 04:26:02;;;;;;;8.57;5.57;;;;;;;7.18;91.02;99527.47;5059968;28;20060;-83
2021/05/17 04:28:34;;;;;;;10.02;5.50;;;;;;;7.20;91.34;99519.06;5075470;28;20056;-86
2021/05/17 04:31:08;;;;;;;7.60;4.75;;;;;;;7.22;90.55;99527.69;5060796;28;20384;-85
2021/05/17 04:33:41;;;;;;;7.70;4.65;;;;;;;7.09;90.81;99511.03;5060589;28;20056;-82
2021/05/17 04:36:14;;;;;;;6.88;4.63;;;;;;;7.24;90.46;99530.94;5066042;28;20048;-85
2021/05/17 04:38:47;;;;;;;11.90;5.30;;;;;;;7.16;90.22;99521.53;5054211;28;20060;-84
2021/05/17 04:41:21;;;;;;;8.48;5.35;;;;;;;7.20;91.21;99532.59;5061557;28;20063;-84
2021/05/17 04:43:54;;;;;;;13.23;5.53;;;;;;;7.23;91.71;99532.00;5061925;28;20688;-85
2021/05/17 04:46:29;;;;;;;8.85;5.35;;;;;;;7.32;90.71;99536.50;5062652;28;20500;-83
2021/05/17 04:49:02;;;;;;;8.02;4.63;;;;;;;7.42;90.11;99511.25;5077247;28;20049;-86
2021/05/17 04:51:35;;;;;;;8.15;5.05;;;;;;;7.44;90.60;99527.19;5061451;28;20048;-84
2021/05/17 04:54:07;;;;;;;7.72;4.88;;;;;;;7.67;89.81;99536.41;5064407;28;20040;-85
2021/05/17 04:56:40;;;;;;;9.73;5.10;;;;;;;7.75;90.00;99546.63;5066305;28;20040;-84
2021/05/17 04:59:12;;;;;;;8.35;5.28;;;;;;;7.99;89.37;99548.50;5054474;28;20532;-85
2021/05/17 05:01:46;;;;;;;7.50;4.65;;;;;;;8.07;89.24;99547.06;5074570;28;20048;-85
2021/05/17 05:04:16;;;;;;;7.50;4.32;;;;;;;8.57;88.43;99552.09;5067323;28;20091;-85
2021/05/17 05:06:48;;;;;;;6.78;4.40;;;;;;;10.48;82.17;99547.47;5064966;28;20056;-85
2021/05/17 05:09:21;;;;;;;7.20;3.35;;;;;;;12.02;75.09;99539.19;5054398;28;20044;-86
2021/05/17 05:11:54;;;;;;;5.53;3.00;;;;;;;12.95;70.52;99544.53;5060111;28;20123;-84
2021/05/17 05:14:26;;;;;;;4.32;2.67;;;;;;;13.44;70.36;99529.47;5076073;28;20045;-83
2021/05/17 05:17:00;;;;;;;4.22;2.30;;;;;;;14.02;66.66;99547.41;5061896;28;20041;-84
2021/05/17 05:19:33;;;;;;;6.30;2.50;;;;;;;14.07;68.95;99548.00;5068280;28;20052;-83
2021/05/17 05:22:05;;;;;;;5.95;2.50;;;;;;;14.96;67.03;99541.53;5071988;28;20049;-84
2021/05/17 05:24:40;;;;;;;3.53;2.10;;;;;;;15.07;65.45;99544.66;5063798;28;20048;-84
2021/05/17 05:27:14;;;;;;;3.13;1.92;;;;;;;15.74;63.54;99535.50;5056163;28;20041;-84
2021/05/17 05:29:55;;;;;;;5.90;2.28;;;;;;;15.21;64.43;99543.56;5061166;28;20040;-84
2021/05/17 05:32:31;;;;;;;3.80;1.98;;;;;;;14.98;65.96;99543.13;5063895;28;20473;-84
2021/05/17 05:35:05;;;;;;;3.85;1.88;;;;;;;14.10;69.66;99543.81;5077432;28;20405;-84
2021/05/17 05:37:37;;;;;;;5.50;1.90;;;;;;;13.39;73.09;99539.78;5060172;28;20041;-84
2021/05/17 05:40:06;;;;;;;3.38;1.75;;;;;;;13.35;75.50;99545.09;5064988;28;20051;-85
2021/05/17 05:42:34;;;;;;;3.15;1.73;;;;;;;13.04;71.87;99542.59;5055887;28;20052;-83
2021/05/17 05:45:10;;;;;;;3.40;1.88;;;;;;;12.19;76.00;99552.03;5061144;28;20056;-83
2021/05/17 05:47:46;;;;;;;4.40;2.10;;;;;;;11.76;77.24;99556.22;5054472;28;20048;-83
2021/05/17 05:50:20;;;;;;;3.33;1.90;;;;;;;11.52;77.47;99553.91;5064710;28;20040;-83
2021/05/17 05:52:53;;;;;;;4.93;2.30;;;;;;;11.25;77.57;99557.59;5055255;28;20048;-84
2021/05/17 05:55:27;;;;;;;6.72;2.10;;;;;;;10.88;80.78;99558.50;5062948;28;20519;-85
2021/05/17 05:58:00;;;;;;;5.00;2.38;;;;;;;11.19;81.45;99570.56;5066619;28;20487;-86
2021/05/17 06:00:33;;;;;;;4.13;2.10;;;;;;;11.14;79.37;99568.75;5060055;28;20737;-85
2021/05/17 06:03:06;;;;;;;4.75;2.20;;;;;;;11.27;80.53;99569.81;5054782;28;20056;-85
2021/05/17 06:05:39;;;;;;;4.78;2.67;;;;;;;11.36;81.29;99569.84;5078552;28;20052;-85
2021/05/17 06:08:13;;;;;;;4.70;2.58;;;;;;;11.25;82.04;99576.66;5057281;28;20048;-85
2021/05/17 06:10:41;;;;;;;4.35;2.15;;;;;;;11.35;78.83;99571.78;5068529;28;20059;-85
2021/05/17 06:13:14;;;;;;;5.22;2.60;;;;;;;11.39;80.91;99582.81;5058481;28;20059;-87
2021/05/17 06:15:47;;;;;;;4.85;2.63;;;;;;;11.30;80.89;99573.81;5060181;28;20060;-83
2021/05/17 06:18:21;;;;;;;5.55;2.53;;;;;;;11.52;80.49;99583.88;5057772;28;20044;-83
2021/05/17 06:20:54;;;;;;;4.53;2.75;;;;;;;11.46;82.60;99588.66;5057951;28;20045;-84
2021/05/17 06:23:28;;;;;;;5.15;2.70;;;;;;;11.74;81.88;99583.00;5053524;28;20051;-84
2021/05/17 06:26:01;;;;;;;5.10;2.30;;;;;;;11.83;78.59;99572.13;5066522;28;20056;-83
2021/05/17 06:28:34;;;;;;;4.95;2.40;;;;;;;11.57;77.35;99575.53;5057269;28;20048;-83
2021/05/17 06:31:05;;;;;;;6.00;3.15;;;;;;;11.57;80.71;99576.38;5058415;28;20048;-85
2021/05/17 06:33:35;;;;;;;4.40;2.65;;;;;;;11.51;82.61;99572.16;5077633;28;20056;-84
2021/05/17 06:36:03;;;;;;;5.80;2.70;;;;;;;11.51;80.50;99583.06;5074257;28;20057;-83
2021/05/17 06:38:40;;;;;;;5.22;2.80;;;;;;;11.36;82.28;99586.97;5057903;28;20052;-83
2021/05/17 06:41:08;;;;;;;4.55;2.47;;;;;;;11.52;81.09;99590.13;5063016;28;20445;-84
2021/05/17 06:43:41;;;;;;;5.20;2.60;;;;;;;11.46;80.94;99596.84;5060534;28;20057;-83
2021/05/17 06:46:19;;;;;;;5.28;2.50;;;;;;;11.37;83.15;99598.69;5056799;28;20049;-83
2021/05/17 06:48:53;;;;;;;5.75;2.60;;;;;;;11.43;81.86;99602.09;5058434;28;20056;-83
2021/05/17 06:51:22;;;;;;;4.60;2.65;;;;;;;11.27;82.44;99597.03;5058870;28;20409;-84
2021/05/17 06:53:57;;;;;;;5.68;2.90;;;;;;;11.23;82.82;99605.00;5056377;28;20040;-84
2021/05/17 06:56:39;;;;;;;6.22;3.20;;;;;;;11.23;82.82;99609.66;5073709;28;20053;-84
2021/05/17 06:59:14;;;;;;;6.82;2.78;;;;;;;11.00;82.22;99596.03;5058696;28;20145;-84
2021/05/17 07:01:47;;;;;;;4.70;2.92;;;;;;;11.05;83.15;99600.56;5064650;28;20044;-82
2021/05/17 07:04:22;;;;;;;6.45;3.00;;;;;;;11.12;83.49;99600.94;5062367;28;20465;-83
2021/05/17 07:06:59;;;;;;;5.85;2.90;;;;;;;11.16;83.60;99615.53;5063853;28;20051;-83
2021/05/17 07:12:23;;;;;;;5.90;3.10;;;;;;;11.50;83.63;99618.78;5060425;28;19920;-84
2021/05/17 07:14:59;;;;;;;5.35;2.70;;;;;;;11.47;82.92;99613.97;5062925;28;20108;-85
2021/05/17 07:17:32;;;;;;;5.80;3.40;;;;;;;11.63;82.55;99615.19;5066362;28;21154;-83
2021/05/17 07:20:07;;;;;;;4.47;3.17;;;;;;;11.81;81.84;99620.72;5064502;28;20048;-84
2021/05/17 07:25:30;;;;;;;5.20;3.28;;;;;;;11.93;80.43;99625.56;5060188;28;20048;-83
2021/05/17 07:27:58;;;;;;;;;;;;;;;12.08;83.63;99619.72;5058627;28;20060;-84
2021/05/17 07:30:33;;;;;;;6.03;3.60;;;;;;;12.18;81.73;99624.06;5066002;28;20297;-84
2021/05/17 07:33:00;;;;;;;8.23;3.40;;;;;;;12.36;80.10;99622.19;5061528;28;20460;-85
2021/05/17 07:35:34;;;;;;;7.30;3.10;;;;;;;12.41;75.19;99616.59;5060471;28;20037;-84
2021/05/17 07:38:02;;;;;;;11.98;3.80;;;;;;;12.54;79.15;99615.66;5062562;28;20040;-84
2021/05/17 07:40:36;;;;;;;8.35;4.25;;;;;;;12.31;74.93;99625.09;5058125;28;20060;-84
2021/05/17 07:43:09;;;;;;;9.25;5.35;;;;;;;12.13;79.28;99626.97;5067123;28;20044;-86
2021/05/17 07:45:42;;;;;;;11.85;5.70;;;;;;;11.99;77.47;99625.16;5060546;28;20052;-84
2021/05/17 07:48:18;;;;;;;8.20;5.47;;;;;;;12.07;78.99;99624.38;5061658;28;20051;-85
2021/05/17 07:50:52;;;;;;;8.82;5.22;;;;;;;12.08;74.70;99630.63;5070610;28;20060;-82
2021/05/17 07:53:25;;;;;;;10.55;5.50;;;;;;;12.00;78.35;99631.41;5077818;28;20045;-84
2021/05/17 07:55:57;;;;;;;9.60;4.90;;;;;;;12.22;74.10;99628.59;5077201;28;20060;-84
2021/05/17 07:58:30;;;;;;;9.77;5.18;;;;;;;12.18;72.71;99630.34;5059807;28;20052;-85
2021/05/17 08:01:03;;;;;;;9.27;5.38;;;;;;;12.09;73.95;99626.78;5064418;28;20076;-84
2021/05/17 08:03:35;;;;;;;9.15;5.38;;;;;;;12.06;75.85;99621.97;5064837;28;20037;-85
2021/05/17 08:06:09;;;;;;;7.78;5.20;;;;;;;12.06;78.65;99625.50;5057637;28;20036;-91
2021/05/17 08:08:45;;;;;;;10.68;5.60;;;;;;;12.25;80.74;99629.91;5057448;28;20833;-83
2021/05/17 08:11:14;;;;;;;9.00;5.05;;;;;;;12.32;78.92;99637.59;5064588;28;20052;-84
2021/05/17 08:13:48;;;;;;;9.38;5.20;;;;;;;12.29;78.54;99641.78;5060646;28;20044;-83
2021/05/17 08:16:22;;;;;;;9.18;5.05;;;;;;;12.25;76.57;99625.22;5057736;28;20041;-84
2021/05/17 08:18:55;;;;;;;8.27;4.65;;;;;;;12.35;74.11;99640.50;5063748;28;20045;-84
2021/05/17 08:21:25;;;;;;;8.95;5.10;;;;;;;12.37;76.96;99638.28;5053972;28;20954;-84
2021/05/17 08:23:58;;;;;;;10.80;5.20;;;;;;;12.49;77.45;99636.84;5057493;28;20033;-85
2021/05/17 08:26:30;;;;;;;7.40;4.43;;;;;;;12.64;75.12;99638.31;5076068;28;20049;-84
2021/05/17 08:29:05;;;;;;;6.93;4.40;;;;;;;12.71;73.17;99638.66;5060406;28;20036;-85
2021/05/17 08:31:40;;;;;;;9.88;4.88;;;;;;;12.80;75.83;99638.63;5060448;28;20492;-83
2021/05/17 08:34:13;;;;;;;8.90;4.63;;;;;;;12.83;77.11;99636.09;5058048;28;20040;-84
2021/05/17 08:36:47;;;;;;;9.13;4.70;;;;;;;12.71;77.11;99633.97;5065555;28;20048;-84
2021/05/17 08:39:19;;;;;;;7.63;4.35;;;;;;;12.72;75.80;99637.53;5062608;28;20052;-84
2021/05/17 08:41:49;;;;;;;;;;;;;;;12.90;75.40;99644.59;5056088;28;20045;-83
2021/05/17 08:44:23;;;;;;;9.75;4.38;;;;;;;12.76;76.62;99638.50;5071639;28;19936;-84
2021/05/17 08:46:56;;;;;;;8.75;4.45;;;;;;;12.93;76.73;99638.47;5057609;28;20049;-85
2021/05/17 08:49:29;;;;;;;9.18;3.92;;;;;;;12.90;75.05;99643.81;5072703;28;20049;-83
2021/05/17 08:51:58;;;;;;;6.50;4.22;;;;;;;13.15;76.27;99644.13;5060010;28;20049;-83
2021/05/17 08:54:31;;;;;;;9.27;4.47;;;;;;;13.11;75.08;99643.94;5064092;28;20049;-83
2021/05/17 08:56:59;;;;;;;8.60;4.35;;;;;;;13.13;75.18;99644.41;5050554;28;20044;-83
2021/05/17 08:59:27;;;;;;;7.97;4.00;;;;;;;13.20;74.88;99644.75;5050244;28;20064;-83
2021/05/17 09:02:00;;;;;;;8.95;4.35;;;;;;;13.22;76.21;99639.75;5057131;28;20059;-82
2021/05/17 09:04:39;;;;;;;9.13;4.07;;;;;;;13.32;73.76;99643.28;5044866;28;20413;-84
2021/05/17 09:07:14;;;;;;;6.70;4.20;;;;;;;13.50;71.83;99633.16;5045100;28;20048;-83
2021/05/17 09:09:47;;;;;;;7.90;4.20;;;;;;;13.49;73.20;99634.28;5044831;28;20048;-84
2021/05/17 09:12:21;;;;;;;8.32;4.32;;;;;;;13.56;72.84;99635.41;5063942;28;20052;-84
2021/05/17 09:14:56;;;;;;;8.55;3.63;;;;;;;13.19;70.79;99618.56;5048123;28;20668;-82
2021/05/17 09:17:29;;;;;;;9.93;4.00;;;;;;;13.67;74.88;99640.50;5041444;28;20739;-82
2021/05/17 09:20:21;;;;;;;9.38;4.50;;;;;;;14.10;72.88;99636.81;5043678;28;20046;-83
2021/05/17 09:23:09;;;;;;;10.10;3.85;;;;;;;14.24;67.30;99631.13;5058011;28;20047;-85
2021/05/17 09:26:01;;;;;;;8.65;3.92;;;;;;;14.59;72.50;99622.69;5068549;28;20520;-84
2021/05/17 09:28:31;;;;;;;8.48;3.80;;;;;;;14.81;69.59;99613.38;5061427;28;20063;-85
2021/05/17 09:31:08;;;;;;;7.78;3.20;;;;;;;14.76;66.24;99619.88;5041438;28;20057;-84
2021/05/17 09:33:44;;;;;;;9.23;3.05;;;;;;;14.78;68.98;99623.06;5044842;28;20049;-85
2021/05/17 09:36:30;;;;;;;6.45;2.50;;;;;;;14.41;70.35;99622.78;5044537;28;20056;-84
2021/05/17 09:39:05;;;;;;;7.78;2.38;;;;;;;14.41;69.57;99614.56;5044296;28;20061;-85
2021/05/17 09:41:41;;;;;;;6.05;1.80;;;;;;;14.44;66.35;99613.94;5030187;28;20040;-82
2021/05/17 09:44:16;;;;;;;4.70;1.83;;;;;;;14.28;63.42;99616.44;5051975;28;20048;-84
2021/05/17 09:47:02;;;;;;;8.32;1.67;;;;;;;14.19;67.53;99620.34;5049200;28;20059;-81
2021/05/17 09:49:37;;;;;;;5.53;1.60;;;;;;;14.51;65.20;99621.59;5052658;28;20049;-84
2021/05/17 09:52:08;;;;;;;7.25;2.08;;;;;;;14.93;64.03;99621.66;5052709;28;20123;-83
2021/05/17 09:54:50;;;;;;;6.25;2.28;;;;;;;14.75;62.47;99625.69;5051459;28;20075;-84
2021/05/17 09:57:25;;;;;;;4.78;1.90;;;;;;;14.91;63.62;99626.66;5053347;28;20044;-83
2021/05/17 10:00:04;;;;;;;7.07;2.00;;;;;;;14.63;65.54;99627.19;5060441;28;20649;-84
2021/05/17 10:02:40;;;;;;;8.15;1.90;;;;;;;14.05;65.78;99617.84;5054801;28;20054;-84
2021/05/17 10:05:16;;;;;;;5.00;1.90;;;;;;;14.21;64.29;99609.88;5075753;28;20513;-83
2021/05/17 10:07:52;;;;;;;5.13;1.80;;;;;;;14.62;67.04;99616.53;5050935;28;20371;-80
2021/05/17 10:10:28;;;;;;;4.10;1.67;;;;;;;15.33;67.86;99620.34;5053402;28;20305;-80
2021/05/17 10:13:03;;;;;;;4.78;1.63;;;;;;;15.65;60.89;99621.44;5048624;28;20045;-79
2021/05/17 10:15:36;;;;;;;6.15;1.80;;;;;;;15.47;62.44;99620.81;5071662;28;20060;-79
2021/05/17 10:18:10;;;;;;;6.88;1.80;;;;;;;15.11;60.09;99627.00;5058273;28;20618;-79
2021/05/17 10:20:44;;;;;;;4.28;1.60;;;;;;;14.72;61.36;99620.84;5051938;28;20048;-79
2021/05/17 10:23:13;;;;;;;7.10;1.80;;;;;;;14.55;63.14;99614.31;5056979;28;20056;-79
2021/05/17 10:25:44;;;;;;;5.40;1.67;;;;;;;14.48;58.71;99622.28;5048386;28;20041;-79
2021/05/17 10:28:20;;;;;;;4.78;1.80;;;;;;;14.57;65.14;99625.75;5050969;28;20053;-79
2021/05/17 10:30:53;;;;;;;6.57;1.60;;;;;;;14.77;65.53;99623.38;5051726;28;20079;-79
2021/05/17 10:33:27;;;;;;;6.30;1.90;;;;;;;15.52;64.89;99616.25;5055514;28;20044;-79
2021/05/17 10:36:00;;;;;;;6.18;1.80;;;;;;;15.57;57.11;99621.53;5057435;28;20052;-79
2021/05/17 10:38:40;;;;;;;4.35;1.60;;;;;;;15.35;59.23;99620.00;5054797;28;20059;-79
2021/05/17 10:41:35;;;;;;;5.22;1.70;;;;;;;15.53;63.19;99631.56;5055870;28;20056;-80
2021/05/17 10:44:15;;;;;;;7.65;1.80;;;;;;;15.84;62.79;99622.88;5060094;28;20064;-80
2021/05/17 10:46:51;;;;;;;7.80;1.80;;;;;;;16.44;62.37;99623.19;5071472;28;20056;-84
2021/05/17 10:49:26;;;;;;;5.90;1.65;;;;;;;16.99;60.78;99620.91;5059154;28;20063;-83
2021/05/17 10:52:22;;;;;;;2.92;1.38;;;;;;;16.59;57.74;99616.19;5059396;28;20052;-84
2021/05/17 10:55:01;;;;;;;4.10;1.58;;;;;;;16.58;59.33;99622.03;5075613;28;20048;-83
2021/05/17 10:57:57;;;;;;;6.68;1.52;;;;;;;16.88;58.46;99622.53;5062640;28;20040;-83
2021/05/17 11:00:32;;;;;;;2.78;1.30;;;;;;;16.54;57.54;99619.19;5056944;28;20516;-83
2021/05/17 11:03:08;;;;;;;7.97;1.50;;;;;;;16.46;61.29;99629.16;5062495;28;20048;-84
2021/05/17 11:05:37;;;;;;;5.57;1.60;;;;;;;16.05;56.16;99631.00;5062495;28;20049;-83
2021/05/17 11:08:13;;;;;;;7.18;1.63;;;;;;;15.84;61.41;99624.81;5057829;28;20056;-84
2021/05/17 11:10:51;;;;;;;5.25;1.77;;;;;;;15.47;64.12;99640.00;5059632;28;20052;-83
2021/05/17 11:13:22;;;;;;;6.22;1.90;;;;;;;15.33;61.21;99642.25;5060189;28;20048;-83
2021/05/17 11:15:58;;;;;;;4.43;1.58;;;;;;;15.12;61.97;99648.56;5056703;28;20052;-84
2021/05/17 11:18:44;;;;;;;3.78;1.05;;;;;;;14.86;59.05;99642.50;5054932;28;20713;-83
2021/05/17 11:21:27;;;;;;;4.57;1.20;;;;;;;14.57;61.67;99655.06;5059668;28;20876;-83
2021/05/17 11:24:05;;;;;;;4.63;1.38;;;;;;;14.58;61.75;99652.00;5060085;28;20678;-83
2021/05/17 11:26:54;;;;;;;4.00;1.20;;;;;;;14.46;63.81;99660.94;5057282;28;20049;-83
2021/05/17 11:29:33;;;;;;;8.90;1.40;;;;;;;14.75;63.99;99664.81;5063452;28;20048;-88
2021/05/17 11:32:12;;;;;;;3.88;1.08;;;;;;;13.41;60.55;99635.91;5065987;28;20048;-90
2021/05/17 11:35:00;;;;;;;4.22;1.10;;;;;;;13.23;66.56;99692.47;5061386;28;21254;-83
2021/05/17 11:37:34;;;;;;;2.60;0.90;;;;;;;12.38;67.81;99696.38;5058483;28;20048;-83
2021/05/17 11:40:25;;;;;;;4.72;1.00;;;;;;;11.95;70.27;99697.00;5055758;28;20055;-81
2021/05/17 11:42:59;;;;;;;7.47;1.10;;;;;;;11.78;70.48;99708.56;5053577;28;20052;-84
2021/05/17 11:45:37;;;;;;;3.33;1.10;;;;;;;11.76;72.17;99711.59;5073624;28;20063;-83
2021/05/17 11:48:10;;;;;;;4.10;0.93;;;;;;;11.77;72.85;99709.69;5072246;28;20053;-83
2021/05/17 11:50:44;;;;;;;2.85;1.20;;;;;;;11.53;74.78;99706.16;5071847;28;20401;-83
2021/05/17 11:53:18;;;;;;;5.15;1.08;;;;;;;11.43;74.88;99705.59;5066199;28;20063;-81
2021/05/17 11:55:51;;;;;;;3.28;1.20;;;;;;;11.28;77.98;99693.94;5052289;28;20056;-82
2021/05/17 11:58:24;;;;;;;2.40;1.23;;;;;;;11.42;78.68;99706.72;5053106;28;20048;-82
2021/05/17 12:01:18;;;;;;;3.38;1.42;;;;;;;11.39;79.15;99706.22;5054960;28;20484;-81
2021/05/17 12:03:53;;;;;;;5.15;1.30;;;;;;;11.81;78.80;99695.13;5051329;28;20048;-80
2021/05/17 12:06:20;;;;;;;1.95;1.27;;;;;;;12.02;77.50;99697.34;5067505;28;20052;-80
2021/05/17 12:08:53;;;;;;;3.08;1.20;;;;;;;12.43;77.04;99696.22;5053374;28;20597;-82
2021/05/17 12:11:26;;;;;;;5.45;1.50;;;;;;;12.63;77.65;99694.03;5051545;28;20067;-82
2021/05/17 12:14:06;;;;;;;1.77;0.90;;;;;;;13.54;77.21;99689.56;5055438;28;20523;-83
2021/05/17 12:16:41;;;;;;;1.17;0.70;;;;;;;14.00;70.10;99681.72;5057278;28;20492;-82
2021/05/17 12:19:15;;;;;;;2.38;0.65;;;;;;;14.16;69.01;99687.47;5055579;28;20055;-82